Time;durP1;ratioP1;P1;durP2;ratioP2;P2;SDS_P1;SDS_P2;PMS_P1;PMS_P2;Temp;Humidity;BMP_temperature;BMP_pressure;BME280_temperature;BME280_humidity;BME280_pressure;Samples;Min_cycle;Max_cycle;Signal;HPM_P1;HPM_P2
2021/10/23 00:01:55;;;;;;;7.25;1.40;;;;;;;7.61;100.00;98705.28;5025317;28;20417;-63
2021/10/23 00:04:39;;;;;;;3.15;1.38;;;;;;;7.53;100.00;98695.81;5020318;28;20540;-63
2021/10/23 00:07:24;;;;;;;6.10;1.73;;;;;;;7.69;100.00;98697.16;5030470;28;20060;-67
2021/10/23 00:10:10;;;;;;;4.10;1.98;;;;;;;7.63;100.00;98699.94;5026058;28;20084;-63
2021/10/23 00:12:54;;;;;;;8.07;2.63;;;;;;;7.63;100.00;98702.56;5024057;28;20652;-65
2021/10/23 00:15:39;;;;;;;6.05;2.65;;;;;;;7.69;100.00;98694.53;5011278;28;20103;-62
2021/10/23 00:18:23;;;;;;;9.07;2.63;;;;;;;7.66;100.00;98706.03;5025113;28;20056;-64
2021/10/23 00:21:08;;;;;;;6.00;2.55;;;;;;;7.67;100.00;98707.75;5011568;28;20536;-65
2021/10/23 00:23:53;;;;;;;7.00;3.08;;;;;;;7.73;100.00;98707.59;5027921;28;20048;-67
2021/10/23 00:26:37;;;;;;;5.87;2.57;;;;;;;7.74;100.00;98717.25;5027294;28;20536;-63
2021/10/23 00:29:22;;;;;;;5.82;2.85;;;;;;;7.58;100.00;98708.00;5014054;28;20723;-63
2021/10/23 00:32:07;;;;;;;4.30;1.73;;;;;;;7.77;100.00;98711.91;5010348;28;20090;-66
2021/10/23 00:34:53;;;;;;;3.00;1.70;;;;;;;7.83;100.00;98721.44;5012616;28;20426;-64
2021/10/23 00:37:38;;;;;;;4.38;1.40;;;;;;;7.90;100.00;98713.31;5026068;28;20405;-62
2021/10/23 00:40:24;;;;;;;3.50;1.30;;;;;;;7.84;100.00;98712.59;5020750;28;20545;-64
2021/10/23 00:43:09;;;;;;;4.43;0.90;;;;;;;7.91;100.00;98701.84;5023565;28;20116;-64
2021/10/23 00:45:53;;;;;;;8.70;1.40;;;;;;;7.87;100.00;98700.19;5026490;28;20080;-69
2021/10/23 00:48:40;;;;;;;5.32;1.20;;;;;;;7.87;100.00;98699.34;5026173;28;20045;-64
2021/10/23 00:51:24;;;;;;;4.68;0.90;;;;;;;7.87;100.00;98697.53;5025376;28;20060;-64
2021/10/23 00:54:10;;;;;;;2.92;0.80;;;;;;;7.99;100.00;98701.66;5027857;28;20048;-64
2021/10/23 00:56:55;;;;;;;3.45;0.93;;;;;;;8.07;100.00;98704.94;5025934;28;20060;-66
2021/10/23 00:59:39;;;;;;;5.75;1.30;;;;;;;7.97;100.00;98693.78;5017197;28;20048;-66
2021/10/23 01:02:24;;;;;;;4.53;1.40;;;;;;;7.88;100.00;98704.53;5024245;28;20052;-64
2021/10/23 01:05:09;;;;;;;3.93;1.27;;;;;;;7.83;100.00;98710.88;5020239;28;20095;-67
2021/10/23 01:07:54;;;;;;;3.30;1.20;;;;;;;7.85;100.00;98709.06;5023697;28;20661;-66
2021/10/23 01:10:39;;;;;;;4.00;0.98;;;;;;;7.85;100.00;98715.22;5003683;28;20106;-66
2021/10/23 01:13:24;;;;;;;3.25;1.50;;;;;;;7.78;100.00;98705.72;5006119;28;20052;-66
2021/10/23 01:16:09;;;;;;;1.60;0.73;;;;;;;7.77;100.00;98705.75;5017412;28;20072;-64
2021/10/23 01:18:53;;;;;;;1.98;0.80;;;;;;;7.82;100.00;98709.13;5021661;28;20092;-68
2021/10/23 01:21:40;;;;;;;4.03;0.98;;;;;;;7.74;100.00;98711.97;5021221;28;20528;-67
2021/10/23 01:24:24;;;;;;;5.03;0.90;;;;;;;7.76;100.00;98712.78;5019234;28;20065;-67
2021/10/23 01:27:10;;;;;;;3.65;0.90;;;;;;;7.80;100.00;98706.53;5005398;28;20426;-66
2021/10/23 01:29:54;;;;;;;3.38;0.90;;;;;;;7.86;100.00;98722.22;5001929;28;20706;-67
2021/10/23 01:32:40;;;;;;;2.20;1.00;;;;;;;7.96;100.00;98712.28;5019498;28;20040;-66
2021/10/23 01:35:27;;;;;;;4.22;0.90;;;;;;;7.88;100.00;98714.25;5021457;28;20531;-67
2021/10/23 01:38:11;;;;;;;5.05;1.30;;;;;;;7.93;100.00;98709.72;5013254;28;20176;-66
2021/10/23 01:40:56;;;;;;;5.07;1.08;;;;;;;7.91;100.00;98712.38;5005035;28;20531;-67
2021/10/23 01:43:42;;;;;;;5.65;1.30;;;;;;;7.81;100.00;98717.94;5008622;28;20048;-67
2021/10/23 01:46:30;;;;;;;3.85;0.80;;;;;;;7.75;100.00;98724.25;5009373;28;20115;-66
2021/10/23 01:49:14;;;;;;;3.17;1.10;;;;;;;7.76;100.00;98709.28;5007606;28;20639;-65
2021/10/23 01:51:59;;;;;;;2.63;1.00;;;;;;;7.70;100.00;98715.59;5026345;28;20081;-67
2021/10/23 01:54:43;;;;;;;3.15;0.90;;;;;;;7.82;100.00;98714.41;5023619;28;20056;-67
2021/10/23 01:57:29;;;;;;;4.35;1.05;;;;;;;7.85;100.00;98715.22;5025793;28;20091;-67
2021/10/23 02:00:17;;;;;;;2.72;0.98;;;;;;;7.89;100.00;98713.34;4998187;28;20552;-66
2021/10/23 02:03:01;;;;;;;2.25;1.15;;;;;;;7.89;100.00;98708.06;5024274;28;20052;-65
2021/10/23 02:05:46;;;;;;;7.07;1.15;;;;;;;7.86;100.00;98708.13;5009709;28;20102;-67
2021/10/23 02:08:31;;;;;;;5.45;1.02;;;;;;;8.03;100.00;98717.34;5024867;28;20533;-67
2021/10/23 02:11:17;;;;;;;6.90;1.02;;;;;;;8.04;100.00;98705.88;5020449;28;20071;-65
2021/10/23 02:14:02;;;;;;;2.88;0.95;;;;;;;8.23;100.00;98714.22;5025711;28;20099;-67
2021/10/23 02:16:46;;;;;;;7.97;0.88;;;;;;;8.14;100.00;98712.66;5026030;28;20107;-66
2021/10/23 02:19:34;;;;;;;2.85;1.10;;;;;;;8.05;100.00;98725.22;5004852;28;20079;-65
2021/10/23 02:22:18;;;;;;;1.65;0.90;;;;;;;8.09;100.00;98721.59;5017725;28;20255;-67
2021/10/23 02:25:05;;;;;;;5.60;1.17;;;;;;;7.96;100.00;98728.13;5005325;28;20056;-67
2021/10/23 02:27:53;;;;;;;3.38;0.95;;;;;;;8.02;100.00;98722.66;5004730;28;20137;-66
2021/10/23 02:30:38;;;;;;;5.68;1.10;;;;;;;8.02;100.00;98722.66;5011197;28;20048;-66
2021/10/23 02:33:23;;;;;;;4.93;1.52;;;;;;;7.98;100.00;98721.00;5021147;28;20049;-66
2021/10/23 02:36:07;;;;;;;5.53;0.82;;;;;;;8.05;100.00;98722.59;5019531;28;20423;-68
2021/10/23 02:38:52;;;;;;;2.17;1.15;;;;;;;8.16;100.00;98731.09;5006685;28;20049;-64
2021/10/23 02:41:36;;;;;;;4.80;1.17;;;;;;;8.17;100.00;98738.97;5010255;28;20052;-66
2021/10/23 02:44:21;;;;;;;2.80;0.88;;;;;;;8.13;100.00;98721.47;5026620;28;20122;-67
2021/10/23 02:47:06;;;;;;;4.57;1.10;;;;;;;8.19;100.00;98723.94;5026595;28;20540;-68
2021/10/23 02:49:50;;;;;;;3.75;1.00;;;;;;;8.20;100.00;98722.19;5027186;28;20044;-66
2021/10/23 02:52:36;;;;;;;3.65;1.10;;;;;;;8.20;100.00;98711.63;5010868;28;20076;-68
2021/10/23 02:55:22;;;;;;;2.33;0.90;;;;;;;8.17;100.00;98715.22;5025955;28;20044;-70
2021/10/23 02:58:07;;;;;;;2.28;1.30;;;;;;;8.13;100.00;98716.22;5030779;28;20110;-65
2021/10/23 03:00:52;;;;;;;3.58;1.40;;;;;;;8.11;100.00;98730.34;5014232;28;20136;-65
2021/10/23 03:03:37;;;;;;;5.28;1.33;;;;;;;8.06;100.00;98724.31;5030986;28;20095;-66
2021/10/23 03:06:23;;;;;;;3.92;1.42;;;;;;;8.06;100.00;98730.47;5030295;28;20190;-66
2021/10/23 03:09:07;;;;;;;6.80;1.60;;;;;;;8.13;100.00;98725.88;5029986;28;20056;-64
2021/10/23 03:11:52;;;;;;;4.60;1.50;;;;;;;8.13;100.00;98721.47;5016014;28;20076;-64
2021/10/23 03:14:36;;;;;;;9.20;1.73;;;;;;;8.14;100.00;98728.50;5029306;28;20049;-66
2021/10/23 03:17:20;;;;;;;6.68;1.85;;;;;;;8.11;100.00;98731.19;5030262;28;20052;-65
2021/10/23 03:20:07;;;;;;;4.13;1.52;;;;;;;8.12;100.00;98726.81;5028369;28;20420;-64
2021/10/23 03:22:52;;;;;;;5.32;1.48;;;;;;;8.11;100.00;98735.63;5028303;28;20048;-67
2021/10/23 03:25:36;;;;;;;8.20;1.63;;;;;;;8.07;100.00;98731.34;5029286;28;20149;-66
2021/10/23 03:28:21;;;;;;;10.45;2.38;;;;;;;7.99;100.00;98726.25;5028912;28;20056;-68
2021/10/23 03:31:06;;;;;;;6.28;1.80;;;;;;;8.07;100.00;98736.63;5028649;28;20057;-65
2021/10/23 03:33:50;;;;;;;5.85;2.58;;;;;;;8.03;100.00;98735.81;5021074;28;20056;-69
2021/10/23 03:36:35;;;;;;;7.30;2.38;;;;;;;8.01;100.00;98728.84;4994262;28;20056;-66
2021/10/23 03:39:20;;;;;;;9.88;2.10;;;;;;;8.03;100.00;98727.06;5006403;28;20053;-64
2021/10/23 03:42:05;;;;;;;7.45;2.20;;;;;;;8.04;100.00;98729.63;5028106;28;20451;-65
2021/10/23 03:44:50;;;;;;;10.02;2.33;;;;;;;8.06;100.00;98730.47;4999715;28;20148;-64
2021/10/23 03:47:35;;;;;;;4.38;1.88;;;;;;;8.04;100.00;98732.25;5027903;28;20123;-64
2021/10/23 03:50:19;;;;;;;4.30;1.95;;;;;;;8.05;100.00;98726.09;5013582;28;20158;-65
2021/10/23 03:53:05;;;;;;;4.80;1.80;;;;;;;8.01;100.00;98726.22;5015744;28;20068;-64
2021/10/23 03:55:50;;;;;;;4.97;1.58;;;;;;;8.09;100.00;98729.50;5020216;28;20049;-65
2021/10/23 03:58:34;;;;;;;4.22;1.50;;;;;;;8.03;100.00;98734.97;4993221;28;20049;-64
2021/10/23 04:01:19;;;;;;;2.78;1.60;;;;;;;7.93;100.00;98742.25;4985754;28;20141;-64
2021/10/23 04:04:03;;;;;;;6.70;1.70;;;;;;;7.92;100.00;98748.41;5023057;28;20176;-64
2021/10/23 04:06:48;;;;;;;3.42;1.48;;;;;;;7.94;100.00;98744.00;5027234;28;20045;-64
2021/10/23 04:09:34;;;;;;;4.50;1.55;;;;;;;7.92;100.00;98750.22;5029165;28;20056;-65
2021/10/23 04:12:19;;;;;;;5.53;1.60;;;;;;;7.85;100.00;98744.22;5012624;28;20535;-65
2021/10/23 04:15:04;;;;;;;7.10;2.13;;;;;;;7.90;100.00;98754.66;5003223;28;20528;-63
2021/10/23 04:17:49;;;;;;;9.80;1.67;;;;;;;7.79;100.00;98747.00;5027343;28;20137;-64
2021/10/23 04:20:34;;;;;;;4.20;1.70;;;;;;;7.75;100.00;98742.72;5028257;28;20103;-65
2021/10/23 04:23:18;;;;;;;5.70;1.77;;;;;;;7.77;100.00;98754.13;5017858;28;20896;-66
2021/10/23 04:26:03;;;;;;;5.68;1.90;;;;;;;7.79;100.00;98762.84;5009275;28;20108;-64
2021/10/23 04:28:47;;;;;;;3.38;1.45;;;;;;;7.75;100.00;98755.06;5010477;28;20091;-65
2021/10/23 04:31:32;;;;;;;4.88;1.77;;;;;;;7.89;100.00;98761.72;5027467;28;20076;-70
2021/10/23 04:34:17;;;;;;;5.53;1.60;;;;;;;8.04;100.00;98769.22;5045169;28;20132;-63
2021/10/23 04:37:03;;;;;;;6.45;1.45;;;;;;;8.10;100.00;98761.16;5027505;28;20580;-66
2021/10/23 04:39:48;;;;;;;9.73;1.60;;;;;;;8.07;100.00;98760.38;5039689;28;20111;-65
2021/10/23 04:42:33;;;;;;;6.43;1.48;;;;;;;8.16;100.00;98768.06;5026992;28;20053;-66
2021/10/23 04:45:18;;;;;;;4.30;1.60;;;;;;;8.07;100.00;98763.03;5027695;28;20087;-67
2021/10/23 04:48:03;;;;;;;5.20;1.95;;;;;;;8.20;100.00;98774.97;5027285;28;20060;-67
2021/10/23 04:50:47;;;;;;;;;;;;;;;8.21;100.00;98774.09;5026301;28;20466;-69
2021/10/23 04:53:33;;;;;;;3.35;1.55;;;;;;;8.13;100.00;98762.84;5013278;28;19968;-64
2021/10/23 04:56:19;;;;;;;4.50;1.90;;;;;;;8.19;100.00;98766.19;5025721;28;20640;-67
2021/10/23 04:59:05;;;;;;;8.23;1.58;;;;;;;8.39;100.00;98773.63;5003780;28;20053;-65
2021/10/23 05:01:49;;;;;;;4.40;1.40;;;;;;;8.42;100.00;98760.31;5027061;28;20699;-64
2021/10/23 05:04:33;;;;;;;4.32;1.70;;;;;;;8.31;100.00;98778.25;5027432;28;20202;-67
2021/10/23 05:07:18;;;;;;;4.72;1.70;;;;;;;8.34;100.00;98776.38;5025624;28;20056;-68
2021/10/23 05:10:03;;;;;;;9.15;1.70;;;;;;;8.40;100.00;98792.06;5014487;28;20492;-65
2021/10/23 05:12:48;;;;;;;4.88;1.60;;;;;;;8.29;100.00;98782.69;5027890;28;20203;-67
2021/10/23 05:15:32;;;;;;;4.53;1.60;;;;;;;8.31;100.00;98788.81;5004138;28;20137;-66
2021/10/23 05:18:17;;;;;;;5.35;1.60;;;;;;;8.32;100.00;98779.97;5011315;28;20111;-67
2021/10/23 05:21:03;;;;;;;6.28;1.63;;;;;;;8.39;100.00;98787.69;5010070;28;20064;-67
2021/10/23 05:23:52;;;;;;;8.65;1.80;;;;;;;8.30;100.00;98777.38;4995177;28;20128;-66
2021/10/23 05:26:36;;;;;;;5.05;2.03;;;;;;;8.23;100.00;98786.34;5024745;28;20103;-71
2021/10/23 05:29:21;;;;;;;6.07;1.60;;;;;;;8.23;100.00;98804.84;5023836;28;20084;-71
2021/10/23 05:32:06;;;;;;;7.55;1.60;;;;;;;8.20;100.00;98785.53;5012287;28;20061;-70
2021/10/23 05:34:50;;;;;;;6.43;1.88;;;;;;;8.15;100.00;98790.09;5023618;28;20477;-68
2021/10/23 05:37:35;;;;;;;6.97;1.80;;;;;;;8.06;100.00;98780.63;5009351;28;20060;-68
2021/10/23 05:40:20;;;;;;;4.55;1.70;;;;;;;8.03;100.00;98780.69;5026182;28;20052;-66
2021/10/23 05:43:04;;;;;;;6.40;1.90;;;;;;;8.03;100.00;98800.97;5024861;28;20057;-65
2021/10/23 05:45:49;;;;;;;7.30;2.05;;;;;;;7.88;100.00;98799.56;5024745;28;20552;-66
2021/10/23 05:48:34;;;;;;;7.60;1.70;;;;;;;7.86;100.00;98801.38;5024842;28;20052;-68
2021/10/23 05:51:18;;;;;;;6.22;1.95;;;;;;;7.85;100.00;98798.78;5009062;28;20049;-67
2021/10/23 05:54:03;;;;;;;6.05;1.50;;;;;;;7.88;100.00;98801.34;5021658;28;20055;-66
2021/10/23 05:56:47;;;;;;;6.60;2.08;;;;;;;7.94;100.00;98809.09;5009342;28;20574;-66
2021/10/23 05:59:43;;;;;;;8.13;1.75;;;;;;;7.96;100.00;98809.94;5024745;28;20056;-66
2021/10/23 06:02:31;;;;;;;6.88;1.83;;;;;;;7.90;100.00;98810.06;5024399;28;20107;-72
2021/10/23 06:05:15;;;;;;;7.40;1.63;;;;;;;7.85;100.00;98806.69;5010710;28;20079;-69
2021/10/23 06:08:00;;;;;;;5.20;1.77;;;;;;;7.88;100.00;98809.25;5014086;28;20107;-66
2021/10/23 06:10:45;;;;;;;7.13;1.70;;;;;;;7.95;100.00;98819.63;5022029;28;20124;-66
2021/10/23 06:13:34;;;;;;;8.82;1.55;;;;;;;7.95;100.00;98822.25;5026131;28;20060;-68
2021/10/23 06:16:19;;;;;;;2.88;1.60;;;;;;;8.00;100.00;98812.44;5024436;28;20053;-70
2021/10/23 06:19:04;;;;;;;5.38;1.48;;;;;;;7.95;100.00;98821.41;5025137;28;20068;-70
2021/10/23 06:21:49;;;;;;;4.03;2.00;;;;;;;7.94;100.00;98827.56;5022774;28;20531;-70
2021/10/23 06:24:37;;;;;;;13.30;2.20;;;;;;;7.91;100.00;98815.31;5025708;28;20052;-67
2021/10/23 06:27:24;;;;;;;9.05;1.88;;;;;;;7.89;100.00;98830.34;4999250;28;20131;-66
2021/10/23 06:30:09;;;;;;;7.60;1.58;;;;;;;7.98;100.00;98816.91;5010764;28;20056;-69
2021/10/23 06:32:57;;;;;;;6.28;2.05;;;;;;;8.02;100.00;98813.28;5028715;28;20567;-71
2021/10/23 06:35:42;;;;;;;6.25;1.65;;;;;;;8.15;100.00;98825.25;5012546;28;20412;-69
2021/10/23 06:38:27;;;;;;;9.07;1.50;;;;;;;8.29;100.00;98824.94;5012074;28;20045;-68
2021/10/23 06:41:11;;;;;;;5.22;1.50;;;;;;;8.43;100.00;98823.66;5028907;28;20139;-65
2021/10/23 06:43:58;;;;;;;7.82;1.60;;;;;;;8.40;100.00;98809.69;5029086;28;20080;-67
2021/10/23 06:46:45;;;;;;;6.20;1.70;;;;;;;8.48;100.00;98824.44;5028618;28;20057;-68
2021/10/23 06:49:30;;;;;;;10.80;1.60;;;;;;;8.44;100.00;98824.53;5001575;28;20065;-74
2021/10/23 06:52:15;;;;;;;9.82;1.98;;;;;;;8.50;100.00;98819.09;5018635;28;20148;-66
2021/10/23 06:54:59;;;;;;;9.95;2.20;;;;;;;8.49;100.00;98820.88;5026012;28;20495;-65
2021/10/23 06:57:46;;;;;;;10.90;2.05;;;;;;;8.74;100.00;98816.66;5026997;28;20409;-64
2021/10/23 07:00:31;;;;;;;8.27;1.70;;;;;;;9.04;100.00;98826.38;5012618;28;20083;-64
2021/10/23 07:03:17;;;;;;;6.20;1.67;;;;;;;9.27;100.00;98833.63;5011473;28;20079;-68
2021/10/23 07:06:02;;;;;;;8.75;1.48;;;;;;;9.18;100.00;98826.81;5013114;28;20132;-71
2021/10/23 07:08:46;;;;;;;7.95;1.80;;;;;;;9.19;99.63;98832.97;5025684;28;20122;-76
2021/10/23 07:11:30;;;;;;;12.82;2.13;;;;;;;9.43;99.21;98816.38;5028523;28;20056;-71
2021/10/23 07:14:16;;;;;;;5.10;1.48;;;;;;;9.38;98.60;98829.72;5027324;28;20052;-72
2021/10/23 07:17:00;;;;;;;6.53;1.90;;;;;;;9.59;99.46;98830.88;5027758;28;20052;-71
2021/10/23 07:19:45;;;;;;;11.48;1.88;;;;;;;9.98;96.98;98820.78;5022405;28;20052;-71
2021/10/23 07:22:30;;;;;;;8.70;1.80;;;;;;;9.89;94.52;98836.97;4994066;28;20060;-69
2021/10/23 07:25:14;;;;;;;;;;;;;;;9.89;94.67;98837.81;5029231;28;20134;-70
2021/10/23 07:27:59;;;;;;;9.35;1.52;;;;;;;10.10;92.94;98831.88;5009853;28;19975;-69
2021/10/23 07:30:44;;;;;;;7.85;1.70;;;;;;;10.34;92.31;98840.78;5015917;28;20060;-65
2021/10/23 07:33:29;;;;;;;10.63;1.80;;;;;;;10.34;90.08;98831.06;5025952;28;20115;-65
2021/10/23 07:36:17;;;;;;;5.53;1.52;;;;;;;9.99;90.85;98836.63;5016692;28;20111;-69
2021/10/23 07:39:03;;;;;;;4.95;1.52;;;;;;;9.71;92.95;98838.41;5021115;28;20053;-65
2021/10/23 07:41:48;;;;;;;7.93;1.77;;;;;;;9.78;93.87;98842.63;5013938;28;20049;-65
2021/10/23 07:44:33;;;;;;;5.57;1.35;;;;;;;9.64;93.77;98836.88;5029182;28;20114;-66
2021/10/23 07:47:20;;;;;;;6.47;1.38;;;;;;;9.53;93.98;98841.63;5011609;28;20153;-67
2021/10/23 07:50:07;;;;;;;4.82;1.50;;;;;;;9.33;94.39;98834.31;5028629;28;20056;-66
2021/10/23 07:52:52;;;;;;;5.25;1.67;;;;;;;9.64;96.92;98849.25;5036834;28;20123;-66
2021/10/23 07:55:38;;;;;;;8.73;1.60;;;;;;;9.71;96.85;98862.25;5026703;28;20425;-66
2021/10/23 07:58:23;;;;;;;6.55;1.90;;;;;;;9.57;96.26;98854.72;5028167;28;20072;-66
2021/10/23 08:01:07;;;;;;;8.23;1.55;;;;;;;9.49;95.96;98862.03;5026257;28;20083;-68
2021/10/23 08:03:51;;;;;;;8.15;2.03;;;;;;;9.57;96.88;98858.28;5028540;28;20067;-64
2021/10/23 08:06:36;;;;;;;6.78;1.95;;;;;;;9.66;97.12;98844.75;5023235;28;20665;-65
2021/10/23 08:09:20;;;;;;;9.25;1.98;;;;;;;9.76;96.40;98857.66;5026691;28;20145;-66
2021/10/23 08:12:06;;;;;;;;;;;;;;;9.67;96.55;98846.50;5022190;28;20047;-65
2021/10/23 08:14:51;;;;;;;;;;;;;;;9.58;96.73;98851.16;5007427;28;20721;-66
2021/10/23 08:17:37;;;;;;;9.38;2.10;;;;;;;9.58;97.53;98858.25;5016181;28;19928;-65
2021/10/23 08:20:22;;;;;;;10.85;1.83;;;;;;;9.30;97.24;98865.28;5019442;28;20052;-67
2021/10/23 08:23:08;;;;;;;10.77;2.17;;;;;;;9.35;99.16;98858.06;5025103;28;20107;-67
2021/10/23 08:25:53;;;;;;;8.60;2.58;;;;;;;9.42;100.00;98859.63;5018940;28;20536;-66
2021/10/23 08:28:38;;;;;;;6.82;1.65;;;;;;;9.39;100.00;98865.84;5009890;28;20051;-66
2021/10/23 08:31:23;;;;;;;;;;;;;;;9.57;100.00;98850.34;5019713;28;20937;-68
2021/10/23 08:34:09;;;;;;;12.73;1.98;;;;;;;9.82;99.40;98859.25;5004546;28;19928;-68
2021/10/23 08:36:54;;;;;;;7.95;1.85;;;;;;;9.90;98.38;98876.66;4998237;28;20132;-68
2021/10/23 08:39:39;;;;;;;6.93;2.15;;;;;;;9.83;97.39;98877.75;5020807;28;20110;-73
2021/10/23 08:42:24;;;;;;;6.55;1.83;;;;;;;9.61;97.45;98876.66;5018841;28;20088;-69
2021/10/23 08:45:09;;;;;;;;;;;;;;;9.61;98.30;98878.47;5003895;28;20405;-65
2021/10/23 08:47:57;;;;;;;7.15;2.10;;;;;;;9.66;98.47;98874.75;5016352;28;19924;-69
2021/10/23 08:50:42;;;;;;;4.60;1.98;;;;;;;9.73;99.13;98878.06;5023231;28;20044;-68
2021/10/23 08:53:28;;;;;;;5.40;2.08;;;;;;;9.92;98.84;98869.50;5022881;28;20056;-69
2021/10/23 08:56:13;;;;;;;7.38;1.88;;;;;;;9.82;96.92;98880.44;5017916;28;20087;-67
2021/10/23 08:58:57;;;;;;;7.38;2.22;;;;;;;9.76;98.25;98873.53;5016812;28;20068;-71
2021/10/23 09:01:42;;;;;;;7.20;2.20;;;;;;;9.82;98.35;98870.72;5021775;28;20056;-68
2021/10/23 09:04:28;;;;;;;;;;;;;;;9.93;97.18;98879.16;4989559;28;20141;-69
2021/10/23 09:07:15;;;;;;;;;;;;;;;10.10;96.82;98878.69;5018978;28;19967;-70
2021/10/23 09:10:03;;;;;;;7.85;2.30;;;;;;;10.55;94.81;98875.38;5024690;28;19928;-66
2021/10/23 09:13:01;;;;;;;8.48;2.25;;;;;;;11.28;88.81;98876.28;5007520;28;20095;-70
2021/10/23 09:15:48;;;;;;;7.90;2.42;;;;;;;12.01;83.40;98867.25;4993395;28;20138;-67
2021/10/23 09:18:49;;;;;;;8.27;2.50;;;;;;;11.66;82.47;98875.72;4987435;28;20052;-69
2021/10/23 09:21:38;;;;;;;5.97;2.33;;;;;;;11.19;83.70;98880.13;5017685;28;20111;-64
2021/10/23 09:24:23;;;;;;;8.43;2.35;;;;;;;11.86;81.15;98868.72;5025097;28;20064;-70
2021/10/23 09:27:16;;;;;;;9.68;2.30;;;;;;;12.06;81.44;98881.19;4998063;28;20048;-69
2021/10/23 09:30:01;;;;;;;6.32;2.33;;;;;;;12.85;79.89;98868.97;5014778;28;20045;-70
2021/10/23 09:32:55;;;;;;;3.65;2.00;;;;;;;14.60;74.38;98869.59;5014258;28;20594;-68
2021/10/23 09:35:45;;;;;;;12.70;2.70;;;;;;;15.58;63.99;98858.09;5024457;28;20047;-71
2021/10/23 09:38:33;;;;;;;5.47;2.47;;;;;;;15.41;60.59;98858.16;5026335;28;20111;-71
2021/10/23 09:41:25;;;;;;;6.78;2.20;;;;;;;16.45;57.59;98857.59;4996324;28;20055;-75
2021/10/23 09:44:16;;;;;;;8.55;2.05;;;;;;;15.17;56.87;98859.44;5013323;28;20059;-69
2021/10/23 09:47:01;;;;;;;5.10;2.13;;;;;;;14.10;58.58;98853.38;5024291;28;20188;-71
2021/10/23 09:50:09;;;;;;;8.90;2.33;;;;;;;13.65;60.64;98868.91;5025146;28;20076;-68
2021/10/23 09:52:58;;;;;;;6.03;2.03;;;;;;;12.55;64.09;98859.66;4982404;28;20088;-70
2021/10/23 09:55:52;;;;;;;6.90;2.63;;;;;;;12.99;65.58;98863.97;4985260;28;20168;-70
2021/10/23 09:58:38;;;;;;;6.53;2.60;;;;;;;14.62;62.87;98870.34;5022842;28;20523;-69
2021/10/23 10:01:25;;;;;;;5.60;2.50;;;;;;;15.27;55.53;98855.31;5007089;28;20063;-72
2021/10/23 10:04:15;;;;;;;7.13;2.30;;;;;;;16.28;52.28;98868.41;5020013;28;20416;-72
2021/10/23 10:07:04;;;;;;;7.88;2.53;;;;;;;17.81;48.40;98878.66;5005913;28;20197;-71
2021/10/23 10:09:50;;;;;;;7.72;2.60;;;;;;;18.49;44.67;98876.06;5021914;28;20052;-68
2021/10/23 10:12:36;;;;;;;9.57;2.17;;;;;;;18.92;42.30;98878.47;5013084;28;20057;-69
2021/10/23 10:15:22;;;;;;;7.57;2.63;;;;;;;18.31;41.35;98886.16;4996974;28;20100;-71
2021/10/23 10:18:08;;;;;;;7.03;2.38;;;;;;;17.09;43.93;98888.53;5002539;28;20052;-72
2021/10/23 10:20:59;;;;;;;9.13;2.45;;;;;;;17.48;43.22;98875.41;5001752;28;20059;-69
2021/10/23 10:23:49;;;;;;;9.25;2.58;;;;;;;16.91;44.94;98880.75;5022865;28;21000;-75
2021/10/23 10:26:35;;;;;;;7.43;2.53;;;;;;;15.99;45.23;98877.22;5017002;28;20409;-75
2021/10/23 10:29:25;;;;;;;7.80;2.80;;;;;;;15.87;47.08;98873.38;5005056;28;20567;-74
2021/10/23 10:38:29;;;;;;;13.82;2.60;;;;;;;14.85;51.43;98878.94;5021085;28;20041;-66
2021/10/23 10:44:17;;;;;;;8.20;3.20;;;;;;;16.84;47.14;98874.91;5020079;28;20408;-66
2021/10/23 10:47:03;;;;;;;8.05;2.60;;;;;;;17.77;43.43;98876.28;5000852;28;20567;-65
2021/10/23 10:49:53;;;;;;;8.50;2.97;;;;;;;18.10;42.83;98882.19;5003242;28;20049;-62
2021/10/23 10:52:41;;;;;;;7.00;2.72;;;;;;;17.67;43.67;98888.53;5021221;28;20057;-67
2021/10/23 10:55:38;;;;;;;7.25;2.63;;;;;;;17.97;42.75;98887.47;5016353;28;20145;-68
2021/10/23 10:58:52;;;;;;;10.57;2.70;;;;;;;17.00;43.10;98893.56;5020950;28;20064;-63
2021/10/23 11:01:38;;;;;;;6.82;2.42;;;;;;;15.99;45.03;98887.91;5004404;28;20060;-70
2021/10/23 11:04:23;;;;;;;;;;;;;;;14.52;47.93;98891.28;5012925;28;20449;-70
2021/10/23 11:07:09;;;;;;;;;;;;;;;13.63;51.88;98892.06;5010201;28;19940;-73
2021/10/23 11:09:55;;;;;;;8.80;2.90;;;;;;;13.18;55.08;98888.84;5018324;28;19975;-67
2021/10/23 11:12:41;;;;;;;6.72;2.58;;;;;;;13.04;56.53;98888.56;5003264;28;20052;-70
2021/10/23 11:15:57;;;;;;;6.25;2.72;;;;;;;13.07;58.26;98907.94;5002674;28;20579;-74
2021/10/23 11:18:42;;;;;;;7.68;2.70;;;;;;;12.64;58.62;98907.13;4949073;28;20086;-70
2021/10/23 11:21:27;;;;;;;8.63;3.72;;;;;;;12.65;59.34;98907.06;4948492;28;20094;-71
2021/10/23 11:24:12;;;;;;;6.65;3.13;;;;;;;12.86;59.22;98890.19;4950170;28;20061;-70
2021/10/23 11:26:57;;;;;;;6.05;2.75;;;;;;;12.52;60.43;98916.50;4938336;29;20054;-70
2021/10/23 11:29:42;;;;;;;7.30;2.53;;;;;;;12.79;60.04;98903.84;4960492;28;20050;-75
2021/10/23 11:32:28;;;;;;;8.38;4.10;;;;;;;12.43;61.07;98902.72;4927810;28;20062;-70
2021/10/23 11:35:14;;;;;;;7.90;3.60;;;;;;;12.13;63.02;98917.22;4944889;28;20113;-67
2021/10/23 11:38:04;;;;;;;5.75;2.40;;;;;;;12.04;65.00;98917.59;4957042;28;20107;-68
2021/10/23 11:41:01;;;;;;;6.45;2.92;;;;;;;12.35;64.61;98921.63;4938908;28;20051;-67
2021/10/23 11:43:49;;;;;;;;;;;;;;;12.22;64.52;98939.00;4958791;28;20081;-66
2021/10/23 11:46:36;;;;;;;7.10;3.03;;;;;;;11.91;65.35;98929.66;4944083;28;19956;-68
2021/10/23 11:49:32;;;;;;;6.88;2.92;;;;;;;11.86;66.21;98935.13;4958513;28;20580;-67
2021/10/23 11:52:19;;;;;;;8.73;2.60;;;;;;;11.94;65.60;98945.44;4942533;28;20054;-68
2021/10/23 11:55:07;;;;;;;9.15;2.50;;;;;;;11.69;66.62;98939.34;4979248;28;20057;-68
2021/10/23 11:58:03;;;;;;;7.03;3.08;;;;;;;12.25;66.32;98935.34;4997261;28;20056;-70
2021/10/23 12:01:00;;;;;;;7.28;2.42;;;;;;;12.77;63.71;98926.97;5009316;28;20136;-63
2021/10/23 12:03:52;;;;;;;6.95;2.70;;;;;;;13.03;61.52;98926.75;4967179;28;20048;-64
2021/10/23 12:06:40;;;;;;;6.15;2.80;;;;;;;13.25;60.17;98930.19;4993379;28;20148;-65
2021/10/23 12:09:25;;;;;;;8.43;3.33;;;;;;;13.31;59.15;98927.28;5019218;28;20069;-64
2021/10/23 12:12:16;;;;;;;7.38;3.00;;;;;;;12.85;58.19;98919.53;5010482;28;20095;-67
2021/10/23 12:15:18;;;;;;;9.32;3.13;;;;;;;13.14;59.56;98940.47;5015052;28;20124;-67
2021/10/23 12:18:05;;;;;;;8.55;3.10;;;;;;;13.33;59.14;98944.03;5001213;28;20071;-69
2021/10/23 12:20:50;;;;;;;10.68;3.08;;;;;;;13.37;58.31;98940.31;5028324;28;20056;-69
2021/10/23 12:23:51;;;;;;;7.90;2.90;;;;;;;13.29;57.91;98959.28;5024048;28;20056;-65
2021/10/23 12:26:36;;;;;;;9.98;2.90;;;;;;;13.23;57.66;98948.06;5018758;28;20317;-70
2021/10/23 12:29:36;;;;;;;6.63;3.08;;;;;;;12.91;58.81;98945.88;5002997;28;20134;-66
2021/10/23 12:32:27;;;;;;;5.38;2.80;;;;;;;12.63;59.68;98955.94;5024025;28;20100;-64
2021/10/23 12:35:27;;;;;;;12.38;5.13;;;;;;;12.11;61.93;98970.44;5020281;28;20139;-64
2021/10/23 12:38:12;;;;;;;9.73;3.95;;;;;;;11.83;64.98;98961.78;5013599;28;20110;-64
2021/10/23 12:40:59;;;;;;;5.82;3.10;;;;;;;11.62;65.87;98951.97;5007541;28;20114;-71
2021/10/23 12:43:44;;;;;;;10.43;3.42;;;;;;;11.62;66.31;98962.59;5018964;28;20522;-65
2021/10/23 12:46:31;;;;;;;4.93;3.10;;;;;;;11.36;67.93;98964.44;5006648;28;20087;-67
2021/10/23 12:49:20;;;;;;;14.00;4.15;;;;;;;11.35;69.32;98965.38;5023413;28;20180;-69
2021/10/23 12:52:05;;;;;;;10.40;4.32;;;;;;;11.40;69.18;98972.22;5022480;28;20111;-67
2021/10/23 12:54:53;;;;;;;9.80;4.20;;;;;;;11.16;70.71;98977.56;5004480;28;20140;-67
2021/10/23 12:57:38;;;;;;;14.57;4.40;;;;;;;10.93;72.87;98986.31;5021065;28;20120;-70
2021/10/23 13:00:24;;;;;;;13.77;3.88;;;;;;;10.86;74.31;98982.13;5003027;28;20172;-64
2021/10/23 13:03:11;;;;;;;9.02;3.67;;;;;;;10.77;76.87;98985.09;5001775;28;20095;-68
2021/10/23 13:05:55;;;;;;;;;;;;;;;11.01;78.20;98992.22;5017744;28;20080;-67
2021/10/23 13:08:41;;;;;;;11.55;4.18;;;;;;;11.17;79.51;98985.47;5023558;28;20015;-64
2021/10/23 13:11:28;;;;;;;7.35;3.42;;;;;;;11.04;80.95;98984.13;5001541;28;20420;-65
2021/10/23 13:14:14;;;;;;;9.13;3.33;;;;;;;10.61;83.43;98985.63;5023751;28;20524;-66
2021/10/23 13:16:58;;;;;;;9.57;3.58;;;;;;;10.56;85.90;98985.78;5015688;28;20049;-67